sensor_id;sensor_type;location;lat;lon;timestamp;temperature;humidity
16511;DHT22;8368;48.772;8.754;2024-02-04T00:00:01;6.70;99.90
16511;DHT22;8368;48.772;8.754;2024-02-04T00:02:26;6.70;99.90
16511;DHT22;8368;48.772;8.754;2024-02-04T00:04:52;6.70;99.90
16511;DHT22;8368;48.772;8.754;2024-02-04T00:07:17;6.70;99.90
16511;DHT22;8368;48.772;8.754;2024-02-04T00:09:43;6.70;99.90
16511;DHT22;8368;48.772;8.754;2024-02-04T00:12:10;6.70;99.90
16511;DHT22;8368;48.772;8.754;2024-02-04T00:14:35;6.70;99.90
16511;DHT22;8368;48.772;8.754;2024-02-04T00:17:01;6.70;99.90
16511;DHT22;8368;48.772;8.754;2024-02-04T00:19:26;6.70;99.90
16511;DHT22;8368;48.772;8.754;2024-02-04T00:21:52;6.70;99.90
16511;DHT22;8368;48.772;8.754;2024-02-04T00:24:18;6.70;99.90
16511;DHT22;8368;48.772;8.754;2024-02-04T00:26:46;6.70;99.90
16511;DHT22;8368;48.772;8.754;2024-02-04T00:29:12;6.70;99.90
16511;DHT22;8368;48.772;8.754;2024-02-04T00:31:38;6.60;99.90
16511;DHT22;8368;48.772;8.754;2024-02-04T00:34:03;6.60;99.90
16511;DHT22;8368;48.772;8.754;2024-02-04T00:36:30;6.60;99.90
16511;DHT22;8368;48.772;8.754;2024-02-04T00:38:55;6.60;99.90
16511;DHT22;8368;48.772;8.754;2024-02-04T00:41:21;6.60;99.90
16511;DHT22;8368;48.772;8.754;2024-02-04T00:43:47;6.60;99.90
16511;DHT22;8368;48.772;8.754;2024-02-04T00:46:12;6.60;99.90
16511;DHT22;8368;48.772;8.754;2024-02-04T00:48:38;6.70;99.90
16511;DHT22;8368;48.772;8.754;2024-02-04T00:51:06;6.70;99.90
16511;DHT22;8368;48.772;8.754;2024-02-04T00:53:31;6.70;99.90
16511;DHT22;8368;48.772;8.754;2024-02-04T00:56:05;6.70;99.90
16511;DHT22;8368;48.772;8.754;2024-02-04T00:58:31;6.70;99.90
16511;DHT22;8368;48.772;8.754;2024-02-04T01:00:56;6.80;99.90
16511;DHT22;8368;48.772;8.754;2024-02-04T01:03:22;6.80;99.90
16511;DHT22;8368;48.772;8.754;2024-02-04T01:05:48;6.80;99.90
16511;DHT22;8368;48.772;8.754;2024-02-04T01:08:13;6.80;99.90
16511;DHT22;8368;48.772;8.754;2024-02-04T01:10:39;6.80;99.90
16511;DHT22;8368;48.772;8.754;2024-02-04T01:13:04;6.80;99.90
16511;DHT22;8368;48.772;8.754;2024-02-04T01:15:30;6.80;99.90
16511;DHT22;8368;48.772;8.754;2024-02-04T01:17:56;6.80;99.90
16511;DHT22;8368;48.772;8.754;2024-02-04T01:20:21;6.80;99.90
16511;DHT22;8368;48.772;8.754;2024-02-04T01:22:47;6.80;99.90
16511;DHT22;8368;48.772;8.754;2024-02-04T01:25:12;6.80;99.90
16511;DHT22;8368;48.772;8.754;2024-02-04T01:27:38;6.80;99.90
16511;DHT22;8368;48.772;8.754;2024-02-04T01:30:04;6.80;99.90
16511;DHT22;8368;48.772;8.754;2024-02-04T01:32:30;6.80;99.90
16511;DHT22;8368;48.772;8.754;2024-02-04T01:34:56;6.80;99.90
16511;DHT22;8368;48.772;8.754;2024-02-04T01:37:21;6.90;99.90
16511;DHT22;8368;48.772;8.754;2024-02-04T01:39:47;6.90;99.90
16511;DHT22;8368;48.772;8.754;2024-02-04T01:42:12;6.90;99.90
16511;DHT22;8368;48.772;8.754;2024-02-04T01:44:38;6.90;99.90
16511;DHT22;8368;48.772;8.754;2024-02-04T01:47:04;6.80;99.90
16511;DHT22;8368;48.772;8.754;2024-02-04T01:49:29;6.90;99.90
16511;DHT22;8368;48.772;8.754;2024-02-04T01:51:55;6.90;99.90
16511;DHT22;8368;48.772;8.754;2024-02-04T01:54:23;6.90;99.90
16511;DHT22;8368;48.772;8.754;2024-02-04T01:56:51;6.90;99.90
16511;DHT22;8368;48.772;8.754;2024-02-04T01:59:17;6.90;99.90
16511;DHT22;8368;48.772;8.754;2024-02-04T02:01:43;6.90;99.90
16511;DHT22;8368;48.772;8.754;2024-02-04T02:04:09;6.90;99.90
16511;DHT22;8368;48.772;8.754;2024-02-04T02:06:35;6.90;99.90
16511;DHT22;8368;48.772;8.754;2024-02-04T02:09:07;6.90;99.90
16511;DHT22;8368;48.772;8.754;2024-02-04T02:11:47;6.90;99.90
16511;DHT22;8368;48.772;8.754;2024-02-04T02:14:17;7.00;99.90
16511;DHT22;8368;48.772;8.754;2024-02-04T02:16:44;7.00;99.90
16511;DHT22;8368;48.772;8.754;2024-02-04T02:21:57;6.90;99.90
16511;DHT22;8368;48.772;8.754;2024-02-04T02:26:51;6.90;99.90
16511;DHT22;8368;48.772;8.754;2024-02-04T02:29:18;7.00;99.90
16511;DHT22;8368;48.772;8.754;2024-02-04T02:31:44;7.00;99.90
16511;DHT22;8368;48.772;8.754;2024-02-04T02:34:10;6.90;99.90
16511;DHT22;8368;48.772;8.754;2024-02-04T02:36:50;6.90;99.90
16511;DHT22;8368;48.772;8.754;2024-02-04T02:39:23;7.00;99.90
16511;DHT22;8368;48.772;8.754;2024-02-04T02:41:50;7.00;99.90
16511;DHT22;8368;48.772;8.754;2024-02-04T02:44:19;7.00;99.90
16511;DHT22;8368;48.772;8.754;2024-02-04T02:46:46;7.00;99.90
16511;DHT22;8368;48.772;8.754;2024-02-04T02:49:13;7.00;99.90
16511;DHT22;8368;48.772;8.754;2024-02-04T02:51:39;7.00;99.90
16511;DHT22;8368;48.772;8.754;2024-02-04T02:54:04;7.00;99.90
16511;DHT22;8368;48.772;8.754;2024-02-04T02:56:30;6.90;99.90
16511;DHT22;8368;48.772;8.754;2024-02-04T02:58:55;7.00;99.90
16511;DHT22;8368;48.772;8.754;2024-02-04T03:01:21;6.90;99.90
16511;DHT22;8368;48.772;8.754;2024-02-04T03:03:46;6.90;99.90
16511;DHT22;8368;48.772;8.754;2024-02-04T03:06:12;6.90;99.90
16511;DHT22;8368;48.772;8.754;2024-02-04T03:08:37;6.90;99.90
16511;DHT22;8368;48.772;8.754;2024-02-04T03:11:03;6.90;99.90
16511;DHT22;8368;48.772;8.754;2024-02-04T03:13:28;6.90;99.90
16511;DHT22;8368;48.772;8.754;2024-02-04T03:15:55;6.90;99.90
16511;DHT22;8368;48.772;8.754;2024-02-04T03:18:21;6.90;99.90
16511;DHT22;8368;48.772;8.754;2024-02-04T03:20:46;6.90;99.90
16511;DHT22;8368;48.772;8.754;2024-02-04T03:23:12;6.90;99.90
16511;DHT22;8368;48.772;8.754;2024-02-04T03:25:37;6.90;99.90
16511;DHT22;8368;48.772;8.754;2024-02-04T03:28:03;6.90;99.90
16511;DHT22;8368;48.772;8.754;2024-02-04T03:30:29;6.90;99.90
16511;DHT22;8368;48.772;8.754;2024-02-04T03:32:55;6.90;99.90
16511;DHT22;8368;48.772;8.754;2024-02-04T03:35:20;6.90;99.90
16511;DHT22;8368;48.772;8.754;2024-02-04T03:37:46;6.90;99.90
16511;DHT22;8368;48.772;8.754;2024-02-04T03:40:12;6.90;99.90
16511;DHT22;8368;48.772;8.754;2024-02-04T03:42:37;6.90;99.90
16511;DHT22;8368;48.772;8.754;2024-02-04T03:45:04;6.90;99.90
16511;DHT22;8368;48.772;8.754;2024-02-04T03:47:30;6.90;99.90
16511;DHT22;8368;48.772;8.754;2024-02-04T03:49:57;6.80;99.90
16511;DHT22;8368;48.772;8.754;2024-02-04T03:52:22;6.80;99.90
16511;DHT22;8368;48.772;8.754;2024-02-04T03:54:48;6.80;99.90
16511;DHT22;8368;48.772;8.754;2024-02-04T03:57:13;6.80;99.90
16511;DHT22;8368;48.772;8.754;2024-02-04T03:59:39;6.70;99.90
16511;DHT22;8368;48.772;8.754;2024-02-04T04:02:04;6.80;99.90
16511;DHT22;8368;48.772;8.754;2024-02-04T04:04:30;6.80;99.90
16511;DHT22;8368;48.772;8.754;2024-02-04T04:06:55;6.80;99.90
16511;DHT22;8368;48.772;8.754;2024-02-04T04:09:21;6.70;99.90
16511;DHT22;8368;48.772;8.754;2024-02-04T04:11:46;6.70;99.90
16511;DHT22;8368;48.772;8.754;2024-02-04T04:14:12;6.70;99.90
16511;DHT22;8368;48.772;8.754;2024-02-04T04:16:37;6.70;99.90
16511;DHT22;8368;48.772;8.754;2024-02-04T04:19:03;6.70;99.90
16511;DHT22;8368;48.772;8.754;2024-02-04T04:21:28;6.70;99.90
16511;DHT22;8368;48.772;8.754;2024-02-04T04:23:54;6.70;99.90
16511;DHT22;8368;48.772;8.754;2024-02-04T04:26:19;6.70;99.90
16511;DHT22;8368;48.772;8.754;2024-02-04T04:28:44;6.70;99.90
16511;DHT22;8368;48.772;8.754;2024-02-04T04:31:10;6.70;99.90
16511;DHT22;8368;48.772;8.754;2024-02-04T04:33:36;6.70;99.90
16511;DHT22;8368;48.772;8.754;2024-02-04T04:36:02;6.60;99.90
16511;DHT22;8368;48.772;8.754;2024-02-04T04:38:27;6.50;99.90
16511;DHT22;8368;48.772;8.754;2024-02-04T04:40:53;6.60;99.90
16511;DHT22;8368;48.772;8.754;2024-02-04T04:43:19;6.70;99.90
16511;DHT22;8368;48.772;8.754;2024-02-04T04:45:44;6.70;99.90
16511;DHT22;8368;48.772;8.754;2024-02-04T04:48:10;6.70;99.90
16511;DHT22;8368;48.772;8.754;2024-02-04T04:50:35;6.70;99.90
16511;DHT22;8368;48.772;8.754;2024-02-04T04:53:01;6.70;99.90
16511;DHT22;8368;48.772;8.754;2024-02-04T04:55:27;6.70;99.90
16511;DHT22;8368;48.772;8.754;2024-02-04T04:57:53;6.70;99.90
16511;DHT22;8368;48.772;8.754;2024-02-04T05:00:18;6.70;99.90
16511;DHT22;8368;48.772;8.754;2024-02-04T05:02:45;6.70;99.90
16511;DHT22;8368;48.772;8.754;2024-02-04T05:05:11;6.70;99.90
16511;DHT22;8368;48.772;8.754;2024-02-04T05:07:37;6.70;99.90
16511;DHT22;8368;48.772;8.754;2024-02-04T05:10:03;6.70;99.90
16511;DHT22;8368;48.772;8.754;2024-02-04T05:12:29;6.80;99.90
16511;DHT22;8368;48.772;8.754;2024-02-04T05:14:54;6.80;99.90
16511;DHT22;8368;48.772;8.754;2024-02-04T05:17:20;6.80;99.90
16511;DHT22;8368;48.772;8.754;2024-02-04T05:19:45;6.80;99.90
16511;DHT22;8368;48.772;8.754;2024-02-04T05:22:11;6.80;99.90
16511;DHT22;8368;48.772;8.754;2024-02-04T05:24:36;6.80;99.90
16511;DHT22;8368;48.772;8.754;2024-02-04T05:27:02;6.80;99.90
16511;DHT22;8368;48.772;8.754;2024-02-04T05:29:28;6.80;99.90
16511;DHT22;8368;48.772;8.754;2024-02-04T05:31:53;6.80;99.90
16511;DHT22;8368;48.772;8.754;2024-02-04T05:34:19;6.80;99.90
16511;DHT22;8368;48.772;8.754;2024-02-04T05:36:44;6.90;99.90
16511;DHT22;8368;48.772;8.754;2024-02-04T05:39:14;6.90;99.90
16511;DHT22;8368;48.772;8.754;2024-02-04T05:41:40;6.90;99.90
16511;DHT22;8368;48.772;8.754;2024-02-04T05:44:06;6.90;99.90
16511;DHT22;8368;48.772;8.754;2024-02-04T05:46:37;6.90;99.90
16511;DHT22;8368;48.772;8.754;2024-02-04T05:49:03;6.90;99.90
16511;DHT22;8368;48.772;8.754;2024-02-04T05:51:28;6.90;99.90
16511;DHT22;8368;48.772;8.754;2024-02-04T05:53:54;6.80;99.90
16511;DHT22;8368;48.772;8.754;2024-02-04T05:56:21;6.90;99.90
16511;DHT22;8368;48.772;8.754;2024-02-04T05:58:47;6.90;99.90
16511;DHT22;8368;48.772;8.754;2024-02-04T06:01:12;6.90;99.90
16511;DHT22;8368;48.772;8.754;2024-02-04T06:03:38;6.90;99.90
16511;DHT22;8368;48.772;8.754;2024-02-04T06:06:04;6.90;99.90
16511;DHT22;8368;48.772;8.754;2024-02-04T06:08:29;6.90;99.90
16511;DHT22;8368;48.772;8.754;2024-02-04T06:10:55;6.90;99.90
16511;DHT22;8368;48.772;8.754;2024-02-04T06:13:20;6.90;99.90
16511;DHT22;8368;48.772;8.754;2024-02-04T06:15:46;6.90;99.90
16511;DHT22;8368;48.772;8.754;2024-02-04T06:18:12;6.90;99.90
16511;DHT22;8368;48.772;8.754;2024-02-04T06:20:37;6.90;99.90
16511;DHT22;8368;48.772;8.754;2024-02-04T06:23:03;6.90;99.90
16511;DHT22;8368;48.772;8.754;2024-02-04T06:25:28;6.90;99.90
16511;DHT22;8368;48.772;8.754;2024-02-04T06:27:54;6.90;99.90
16511;DHT22;8368;48.772;8.754;2024-02-04T06:30:19;6.90;99.90
16511;DHT22;8368;48.772;8.754;2024-02-04T06:32:47;6.90;99.90
16511;DHT22;8368;48.772;8.754;2024-02-04T06:35:13;7.00;99.90
16511;DHT22;8368;48.772;8.754;2024-02-04T06:37:41;7.00;99.90
16511;DHT22;8368;48.772;8.754;2024-02-04T06:40:07;7.10;99.90
16511;DHT22;8368;48.772;8.754;2024-02-04T06:42:32;7.00;99.90
16511;DHT22;8368;48.772;8.754;2024-02-04T06:44:58;7.00;99.90
16511;DHT22;8368;48.772;8.754;2024-02-04T06:47:23;7.00;99.90
16511;DHT22;8368;48.772;8.754;2024-02-04T06:49:49;7.10;99.90
16511;DHT22;8368;48.772;8.754;2024-02-04T06:52:14;7.00;99.90
16511;DHT22;8368;48.772;8.754;2024-02-04T06:54:40;7.00;99.90
16511;DHT22;8368;48.772;8.754;2024-02-04T06:57:05;7.00;99.90
16511;DHT22;8368;48.772;8.754;2024-02-04T06:59:31;7.00;99.90
16511;DHT22;8368;48.772;8.754;2024-02-04T07:01:56;7.00;99.90
16511;DHT22;8368;48.772;8.754;2024-02-04T07:04:22;7.10;99.90
16511;DHT22;8368;48.772;8.754;2024-02-04T07:06:49;7.00;99.90
16511;DHT22;8368;48.772;8.754;2024-02-04T07:09:15;7.10;99.90
16511;DHT22;8368;48.772;8.754;2024-02-04T07:11:41;7.10;99.90
16511;DHT22;8368;48.772;8.754;2024-02-04T07:14:06;7.10;99.90
16511;DHT22;8368;48.772;8.754;2024-02-04T07:16:33;7.10;99.90
16511;DHT22;8368;48.772;8.754;2024-02-04T07:18:59;7.10;99.90
16511;DHT22;8368;48.772;8.754;2024-02-04T07:21:24;7.10;99.90
16511;DHT22;8368;48.772;8.754;2024-02-04T07:23:50;7.10;99.90
16511;DHT22;8368;48.772;8.754;2024-02-04T07:26:15;7.10;99.90
16511;DHT22;8368;48.772;8.754;2024-02-04T07:28:41;7.20;99.90
16511;DHT22;8368;48.772;8.754;2024-02-04T07:31:07;7.10;99.90
16511;DHT22;8368;48.772;8.754;2024-02-04T07:33:32;7.20;99.90
16511;DHT22;8368;48.772;8.754;2024-02-04T07:35:58;7.20;99.90
16511;DHT22;8368;48.772;8.754;2024-02-04T07:38:23;7.20;99.90
16511;DHT22;8368;48.772;8.754;2024-02-04T07:40:49;7.20;99.90
16511;DHT22;8368;48.772;8.754;2024-02-04T07:43:14;7.20;99.90
16511;DHT22;8368;48.772;8.754;2024-02-04T07:45:40;7.20;99.90
16511;DHT22;8368;48.772;8.754;2024-02-04T07:48:06;7.20;99.90
16511;DHT22;8368;48.772;8.754;2024-02-04T07:50:32;7.30;99.90
16511;DHT22;8368;48.772;8.754;2024-02-04T07:52:57;7.30;99.90
16511;DHT22;8368;48.772;8.754;2024-02-04T07:55:23;7.30;99.90
16511;DHT22;8368;48.772;8.754;2024-02-04T07:57:48;7.30;99.90
16511;DHT22;8368;48.772;8.754;2024-02-04T08:00:14;7.40;99.90
16511;DHT22;8368;48.772;8.754;2024-02-04T08:02:40;7.40;99.90
16511;DHT22;8368;48.772;8.754;2024-02-04T08:05:06;7.40;99.90
16511;DHT22;8368;48.772;8.754;2024-02-04T08:07:31;7.50;99.90
16511;DHT22;8368;48.772;8.754;2024-02-04T08:09:57;7.50;99.90
16511;DHT22;8368;48.772;8.754;2024-02-04T08:12:23;7.50;99.90
16511;DHT22;8368;48.772;8.754;2024-02-04T08:14:48;7.50;99.90
16511;DHT22;8368;48.772;8.754;2024-02-04T08:17:14;7.60;99.90
16511;DHT22;8368;48.772;8.754;2024-02-04T08:19:40;7.60;99.90
16511;DHT22;8368;48.772;8.754;2024-02-04T08:22:06;7.60;99.90
16511;DHT22;8368;48.772;8.754;2024-02-04T08:24:32;7.70;99.90
16511;DHT22;8368;48.772;8.754;2024-02-04T08:26:58;7.60;99.90
16511;DHT22;8368;48.772;8.754;2024-02-04T08:29:25;7.60;99.90
16511;DHT22;8368;48.772;8.754;2024-02-04T08:31:52;7.70;99.90
16511;DHT22;8368;48.772;8.754;2024-02-04T08:34:17;7.70;99.90
16511;DHT22;8368;48.772;8.754;2024-02-04T08:36:45;7.80;99.90
16511;DHT22;8368;48.772;8.754;2024-02-04T08:39:11;7.80;99.90
16511;DHT22;8368;48.772;8.754;2024-02-04T08:41:36;7.90;99.90
16511;DHT22;8368;48.772;8.754;2024-02-04T08:44:02;7.80;99.90
16511;DHT22;8368;48.772;8.754;2024-02-04T08:46:27;7.80;99.90
16511;DHT22;8368;48.772;8.754;2024-02-04T08:48:53;7.80;99.90
16511;DHT22;8368;48.772;8.754;2024-02-04T08:51:18;7.90;99.90
16511;DHT22;8368;48.772;8.754;2024-02-04T08:53:44;7.90;99.90
16511;DHT22;8368;48.772;8.754;2024-02-04T08:56:10;7.90;99.90
16511;DHT22;8368;48.772;8.754;2024-02-04T08:58:35;7.90;99.90
16511;DHT22;8368;48.772;8.754;2024-02-04T09:01:03;7.90;99.90
16511;DHT22;8368;48.772;8.754;2024-02-04T09:03:29;7.90;99.90
16511;DHT22;8368;48.772;8.754;2024-02-04T09:05:55;7.90;99.90
16511;DHT22;8368;48.772;8.754;2024-02-04T09:08:20;7.90;99.90
16511;DHT22;8368;48.772;8.754;2024-02-04T09:10:46;7.90;99.90
16511;DHT22;8368;48.772;8.754;2024-02-04T09:13:11;7.90;99.90
16511;DHT22;8368;48.772;8.754;2024-02-04T09:15:37;7.90;99.90
16511;DHT22;8368;48.772;8.754;2024-02-04T09:18:03;7.90;99.90
16511;DHT22;8368;48.772;8.754;2024-02-04T09:20:28;7.90;99.90
16511;DHT22;8368;48.772;8.754;2024-02-04T09:22:54;7.90;99.90
16511;DHT22;8368;48.772;8.754;2024-02-04T09:25:19;7.90;99.90
16511;DHT22;8368;48.772;8.754;2024-02-04T09:27:45;7.90;99.90
16511;DHT22;8368;48.772;8.754;2024-02-04T09:30:11;7.90;99.90
16511;DHT22;8368;48.772;8.754;2024-02-04T09:32:37;8.00;99.90
16511;DHT22;8368;48.772;8.754;2024-02-04T09:35:03;8.00;99.90
16511;DHT22;8368;48.772;8.754;2024-02-04T09:37:28;8.10;99.90
16511;DHT22;8368;48.772;8.754;2024-02-04T09:39:54;8.20;99.90
16511;DHT22;8368;48.772;8.754;2024-02-04T09:42:26;8.20;99.90
16511;DHT22;8368;48.772;8.754;2024-02-04T09:44:53;8.20;99.90
16511;DHT22;8368;48.772;8.754;2024-02-04T09:47:20;8.30;99.90
16511;DHT22;8368;48.772;8.754;2024-02-04T09:49:46;8.30;99.90
16511;DHT22;8368;48.772;8.754;2024-02-04T09:52:12;8.30;99.90
16511;DHT22;8368;48.772;8.754;2024-02-04T09:54:51;8.30;99.90
16511;DHT22;8368;48.772;8.754;2024-02-04T09:57:18;8.30;99.90
16511;DHT22;8368;48.772;8.754;2024-02-04T09:59:47;8.40;99.90
16511;DHT22;8368;48.772;8.754;2024-02-04T10:02:13;8.40;99.90
16511;DHT22;8368;48.772;8.754;2024-02-04T10:04:38;8.30;99.90
16511;DHT22;8368;48.772;8.754;2024-02-04T10:07:04;8.30;99.90
16511;DHT22;8368;48.772;8.754;2024-02-04T10:09:30;8.20;99.90
16511;DHT22;8368;48.772;8.754;2024-02-04T10:11:57;8.10;99.90
16511;DHT22;8368;48.772;8.754;2024-02-04T10:14:22;8.10;99.90
16511;DHT22;8368;48.772;8.754;2024-02-04T10:16:49;8.10;99.90
16511;DHT22;8368;48.772;8.754;2024-02-04T10:19:15;8.20;99.90
16511;DHT22;8368;48.772;8.754;2024-02-04T10:21:40;8.30;99.90
16511;DHT22;8368;48.772;8.754;2024-02-04T10:24:06;8.40;99.90
16511;DHT22;8368;48.772;8.754;2024-02-04T10:26:33;8.40;99.90
16511;DHT22;8368;48.772;8.754;2024-02-04T10:29:02;8.60;99.90
16511;DHT22;8368;48.772;8.754;2024-02-04T10:31:28;8.70;99.90
16511;DHT22;8368;48.772;8.754;2024-02-04T10:33:54;8.70;99.90
16511;DHT22;8368;48.772;8.754;2024-02-04T10:36:20;8.70;99.90
16511;DHT22;8368;48.772;8.754;2024-02-04T10:38:46;8.80;99.90
16511;DHT22;8368;48.772;8.754;2024-02-04T10:41:14;8.80;99.90
16511;DHT22;8368;48.772;8.754;2024-02-04T10:43:43;8.80;99.90
16511;DHT22;8368;48.772;8.754;2024-02-04T10:46:13;8.90;99.90
16511;DHT22;8368;48.772;8.754;2024-02-04T10:48:43;8.90;99.90
16511;DHT22;8368;48.772;8.754;2024-02-04T10:51:14;8.90;99.90
16511;DHT22;8368;48.772;8.754;2024-02-04T10:53:44;8.90;99.90
16511;DHT22;8368;48.772;8.754;2024-02-04T10:56:22;9.00;99.90
16511;DHT22;8368;48.772;8.754;2024-02-04T10:58:49;9.10;99.90
16511;DHT22;8368;48.772;8.754;2024-02-04T11:01:16;9.20;99.90
16511;DHT22;8368;48.772;8.754;2024-02-04T11:03:43;9.20;99.90
16511;DHT22;8368;48.772;8.754;2024-02-04T11:06:11;9.00;99.90
16511;DHT22;8368;48.772;8.754;2024-02-04T11:08:40;8.90;99.90
16511;DHT22;8368;48.772;8.754;2024-02-04T11:11:06;8.90;99.90
16511;DHT22;8368;48.772;8.754;2024-02-04T11:13:32;8.90;99.90
16511;DHT22;8368;48.772;8.754;2024-02-04T11:16:04;9.00;99.90
16511;DHT22;8368;48.772;8.754;2024-02-04T11:19:19;8.90;99.90
16511;DHT22;8368;48.772;8.754;2024-02-04T11:24:41;8.90;99.90
16511;DHT22;8368;48.772;8.754;2024-02-04T11:27:06;9.00;99.90
16511;DHT22;8368;48.772;8.754;2024-02-04T11:29:32;9.10;99.90
16511;DHT22;8368;48.772;8.754;2024-02-04T11:31:58;9.20;99.90
16511;DHT22;8368;48.772;8.754;2024-02-04T11:34:23;9.20;99.90
16511;DHT22;8368;48.772;8.754;2024-02-04T11:36:49;9.30;99.90
16511;DHT22;8368;48.772;8.754;2024-02-04T11:39:18;9.30;99.90
16511;DHT22;8368;48.772;8.754;2024-02-04T11:41:47;9.40;99.90
16511;DHT22;8368;48.772;8.754;2024-02-04T11:44:23;9.40;99.90
16511;DHT22;8368;48.772;8.754;2024-02-04T11:46:50;9.40;99.90
16511;DHT22;8368;48.772;8.754;2024-02-04T11:49:16;9.20;99.90
16511;DHT22;8368;48.772;8.754;2024-02-04T11:51:46;9.20;99.90
16511;DHT22;8368;48.772;8.754;2024-02-04T11:54:14;9.10;99.90
16511;DHT22;8368;48.772;8.754;2024-02-04T11:56:41;9.20;99.90
16511;DHT22;8368;48.772;8.754;2024-02-04T11:59:07;9.30;99.90
16511;DHT22;8368;48.772;8.754;2024-02-04T12:01:33;9.30;99.90
16511;DHT22;8368;48.772;8.754;2024-02-04T12:04:09;9.30;99.90
16511;DHT22;8368;48.772;8.754;2024-02-04T12:06:35;9.20;99.90
16511;DHT22;8368;48.772;8.754;2024-02-04T12:09:01;9.20;99.90
16511;DHT22;8368;48.772;8.754;2024-02-04T12:11:28;9.20;99.90
16511;DHT22;8368;48.772;8.754;2024-02-04T12:13:54;9.40;99.90
16511;DHT22;8368;48.772;8.754;2024-02-04T12:16:21;9.30;99.90
16511;DHT22;8368;48.772;8.754;2024-02-04T12:18:50;9.40;99.90
16511;DHT22;8368;48.772;8.754;2024-02-04T12:21:16;9.30;99.90
16511;DHT22;8368;48.772;8.754;2024-02-04T12:23:41;9.30;99.90
16511;DHT22;8368;48.772;8.754;2024-02-04T12:26:07;9.30;99.90
16511;DHT22;8368;48.772;8.754;2024-02-04T12:28:32;9.20;99.90
16511;DHT22;8368;48.772;8.754;2024-02-04T12:30:58;9.20;99.90
16511;DHT22;8368;48.772;8.754;2024-02-04T12:33:25;9.20;99.90
16511;DHT22;8368;48.772;8.754;2024-02-04T12:35:51;9.30;99.90
16511;DHT22;8368;48.772;8.754;2024-02-04T12:38:17;9.20;99.90
16511;DHT22;8368;48.772;8.754;2024-02-04T12:40:43;9.30;99.90
16511;DHT22;8368;48.772;8.754;2024-02-04T12:43:11;9.20;99.90
16511;DHT22;8368;48.772;8.754;2024-02-04T12:45:36;9.30;99.90
16511;DHT22;8368;48.772;8.754;2024-02-04T12:48:02;9.30;99.90
16511;DHT22;8368;48.772;8.754;2024-02-04T12:50:28;9.30;99.90
16511;DHT22;8368;48.772;8.754;2024-02-04T12:53:05;9.30;99.90
16511;DHT22;8368;48.772;8.754;2024-02-04T12:55:33;9.40;99.90
16511;DHT22;8368;48.772;8.754;2024-02-04T12:58:20;9.40;99.90
16511;DHT22;8368;48.772;8.754;2024-02-04T13:00:45;9.40;99.90
16511;DHT22;8368;48.772;8.754;2024-02-04T13:03:15;9.40;99.90
16511;DHT22;8368;48.772;8.754;2024-02-04T13:05:40;9.50;99.90
16511;DHT22;8368;48.772;8.754;2024-02-04T13:08:06;9.50;99.90
16511;DHT22;8368;48.772;8.754;2024-02-04T13:10:34;9.50;99.90
16511;DHT22;8368;48.772;8.754;2024-02-04T13:13:04;9.50;99.90
16511;DHT22;8368;48.772;8.754;2024-02-04T13:15:32;9.40;99.90
16511;DHT22;8368;48.772;8.754;2024-02-04T13:17:58;9.50;99.90
16511;DHT22;8368;48.772;8.754;2024-02-04T13:20:24;9.50;99.90
16511;DHT22;8368;48.772;8.754;2024-02-04T13:22:50;9.60;99.90
16511;DHT22;8368;48.772;8.754;2024-02-04T13:25:16;9.70;99.90
16511;DHT22;8368;48.772;8.754;2024-02-04T13:27:42;9.70;99.90
16511;DHT22;8368;48.772;8.754;2024-02-04T13:30:08;9.60;99.90
16511;DHT22;8368;48.772;8.754;2024-02-04T13:32:41;9.50;99.90
16511;DHT22;8368;48.772;8.754;2024-02-04T13:35:07;9.50;99.90
16511;DHT22;8368;48.772;8.754;2024-02-04T13:37:41;9.50;99.90
16511;DHT22;8368;48.772;8.754;2024-02-04T13:40:07;9.50;99.90
16511;DHT22;8368;48.772;8.754;2024-02-04T13:42:34;9.50;99.90
16511;DHT22;8368;48.772;8.754;2024-02-04T13:45:00;9.50;99.90
16511;DHT22;8368;48.772;8.754;2024-02-04T13:47:27;9.50;99.90
16511;DHT22;8368;48.772;8.754;2024-02-04T13:49:52;9.50;99.90
16511;DHT22;8368;48.772;8.754;2024-02-04T13:52:18;9.50;99.90
16511;DHT22;8368;48.772;8.754;2024-02-04T13:54:44;9.50;99.90
16511;DHT22;8368;48.772;8.754;2024-02-04T13:57:09;9.40;99.90
16511;DHT22;8368;48.772;8.754;2024-02-04T13:59:36;9.40;99.90
16511;DHT22;8368;48.772;8.754;2024-02-04T14:02:02;9.40;99.90
16511;DHT22;8368;48.772;8.754;2024-02-04T14:04:29;9.30;99.90
16511;DHT22;8368;48.772;8.754;2024-02-04T14:06:55;9.10;99.90
16511;DHT22;8368;48.772;8.754;2024-02-04T14:09:20;9.00;99.90
16511;DHT22;8368;48.772;8.754;2024-02-04T14:11:46;8.90;99.90
16511;DHT22;8368;48.772;8.754;2024-02-04T14:14:11;8.90;99.90
16511;DHT22;8368;48.772;8.754;2024-02-04T14:16:36;8.90;99.90
16511;DHT22;8368;48.772;8.754;2024-02-04T14:19:02;8.90;99.90
16511;DHT22;8368;48.772;8.754;2024-02-04T14:21:27;8.90;99.90
16511;DHT22;8368;48.772;8.754;2024-02-04T14:23:53;8.90;99.90
16511;DHT22;8368;48.772;8.754;2024-02-04T14:26:19;8.90;99.90
16511;DHT22;8368;48.772;8.754;2024-02-04T14:28:45;9.00;99.90
16511;DHT22;8368;48.772;8.754;2024-02-04T14:31:11;8.90;99.90
16511;DHT22;8368;48.772;8.754;2024-02-04T14:33:36;9.00;99.90
16511;DHT22;8368;48.772;8.754;2024-02-04T14:36:02;9.00;99.90
16511;DHT22;8368;48.772;8.754;2024-02-04T14:38:29;8.90;99.90
16511;DHT22;8368;48.772;8.754;2024-02-04T14:40:56;8.90;99.90
16511;DHT22;8368;48.772;8.754;2024-02-04T14:43:22;8.90;99.90
16511;DHT22;8368;48.772;8.754;2024-02-04T14:45:48;8.90;99.90
16511;DHT22;8368;48.772;8.754;2024-02-04T14:48:14;8.90;99.90
16511;DHT22;8368;48.772;8.754;2024-02-04T14:50:39;9.00;99.90
16511;DHT22;8368;48.772;8.754;2024-02-04T14:53:05;8.90;99.90
16511;DHT22;8368;48.772;8.754;2024-02-04T14:55:32;9.00;99.90
16511;DHT22;8368;48.772;8.754;2024-02-04T14:57:58;8.90;99.90
16511;DHT22;8368;48.772;8.754;2024-02-04T15:00:23;8.90;99.90
16511;DHT22;8368;48.772;8.754;2024-02-04T15:02:50;8.80;99.90
16511;DHT22;8368;48.772;8.754;2024-02-04T15:05:16;8.80;99.90
16511;DHT22;8368;48.772;8.754;2024-02-04T15:07:42;8.70;99.90
16511;DHT22;8368;48.772;8.754;2024-02-04T15:10:08;8.70;99.90
16511;DHT22;8368;48.772;8.754;2024-02-04T15:12:36;8.70;99.90
16511;DHT22;8368;48.772;8.754;2024-02-04T15:15:02;8.70;99.90
16511;DHT22;8368;48.772;8.754;2024-02-04T15:17:28;8.70;99.90
16511;DHT22;8368;48.772;8.754;2024-02-04T15:19:54;8.70;99.90
16511;DHT22;8368;48.772;8.754;2024-02-04T15:22:20;8.70;99.90
16511;DHT22;8368;48.772;8.754;2024-02-04T15:24:46;8.60;99.90
16511;DHT22;8368;48.772;8.754;2024-02-04T15:27:12;8.60;99.90
16511;DHT22;8368;48.772;8.754;2024-02-04T15:29:38;8.60;99.90
16511;DHT22;8368;48.772;8.754;2024-02-04T15:32:04;8.50;99.90
16511;DHT22;8368;48.772;8.754;2024-02-04T15:34:31;8.50;99.90
16511;DHT22;8368;48.772;8.754;2024-02-04T15:37:02;8.50;99.90
16511;DHT22;8368;48.772;8.754;2024-02-04T15:39:28;8.40;99.90
16511;DHT22;8368;48.772;8.754;2024-02-04T15:41:53;8.40;99.90
16511;DHT22;8368;48.772;8.754;2024-02-04T15:44:19;8.40;99.90
16511;DHT22;8368;48.772;8.754;2024-02-04T15:46:47;8.40;99.90
16511;DHT22;8368;48.772;8.754;2024-02-04T15:49:14;8.40;99.90
16511;DHT22;8368;48.772;8.754;2024-02-04T15:51:43;8.40;99.90
16511;DHT22;8368;48.772;8.754;2024-02-04T15:54:09;8.40;99.90
16511;DHT22;8368;48.772;8.754;2024-02-04T15:56:42;8.40;99.90
16511;DHT22;8368;48.772;8.754;2024-02-04T15:59:09;8.40;99.90
16511;DHT22;8368;48.772;8.754;2024-02-04T16:01:37;8.30;99.90
16511;DHT22;8368;48.772;8.754;2024-02-04T16:04:06;8.30;99.90